sensor_id;sensor_type;location;lat;lon;timestamp;pressure;altitude;pressure_sealevel;temperature;humidity
24486;BME280;13449;49.374;8.584;2023-01-31T00:01:27;101501.84;;;3.62;100.00
24486;BME280;13449;49.374;8.584;2023-01-31T00:03:56;101502.72;;;3.62;100.00
24486;BME280;13449;49.374;8.584;2023-01-31T00:06:33;101499.16;;;3.62;100.00
24486;BME280;13449;49.374;8.584;2023-01-31T00:09:01;101501.13;;;3.60;100.00
24486;BME280;13449;49.374;8.584;2023-01-31T00:11:29;101505.50;;;3.61;100.00
24486;BME280;13449;49.374;8.584;2023-01-31T00:14:03;101495.59;;;3.61;100.00
24486;BME280;13449;49.374;8.584;2023-01-31T00:16:30;101500.25;;;3.59;100.00
24486;BME280;13449;49.374;8.584;2023-01-31T00:19:03;101503.06;;;3.58;100.00
24486;BME280;13449;49.374;8.584;2023-01-31T00:21:30;101512.00;;;3.58;100.00
24486;BME280;13449;49.374;8.584;2023-01-31T00:23:57;101508.56;;;3.56;100.00
24486;BME280;13449;49.374;8.584;2023-01-31T00:26:27;101507.72;;;3.56;100.00
24486;BME280;13449;49.374;8.584;2023-01-31T00:28:56;101511.38;;;3.55;100.00
24486;BME280;13449;49.374;8.584;2023-01-31T00:31:25;101516.78;;;3.55;100.00
24486;BME280;13449;49.374;8.584;2023-01-31T00:33:53;101508.78;;;3.53;100.00
24486;BME280;13449;49.374;8.584;2023-01-31T00:36:27;101515.19;;;3.52;100.00
24486;BME280;13449;49.374;8.584;2023-01-31T00:38:56;101508.06;;;3.51;100.00
24486;BME280;13449;49.374;8.584;2023-01-31T00:41:24;101509.03;;;3.50;100.00
24486;BME280;13449;49.374;8.584;2023-01-31T00:43:51;101506.22;;;3.52;100.00
24486;BME280;13449;49.374;8.584;2023-01-31T00:46:18;101505.59;;;3.48;100.00
24486;BME280;13449;49.374;8.584;2023-01-31T00:48:51;101511.97;;;3.47;100.00
24486;BME280;13449;49.374;8.584;2023-01-31T00:51:18;101506.69;;;3.46;100.00
24486;BME280;13449;49.374;8.584;2023-01-31T00:53:45;101512.31;;;3.42;100.00
24486;BME280;13449;49.374;8.584;2023-01-31T00:56:15;101499.94;;;3.40;100.00
24486;BME280;13449;49.374;8.584;2023-01-31T00:58:42;101493.78;;;3.38;100.00
24486;BME280;13449;49.374;8.584;2023-01-31T01:01:14;101495.75;;;3.36;100.00
24486;BME280;13449;49.374;8.584;2023-01-31T01:03:42;101497.47;;;3.37;100.00
24486;BME280;13449;49.374;8.584;2023-01-31T01:06:09;101503.81;;;3.36;100.00
24486;BME280;13449;49.374;8.584;2023-01-31T01:08:40;101494.00;;;3.35;100.00
24486;BME280;13449;49.374;8.584;2023-01-31T01:11:10;101484.19;;;3.34;100.00
24486;BME280;13449;49.374;8.584;2023-01-31T01:13:37;101487.88;;;3.33;100.00
24486;BME280;13449;49.374;8.584;2023-01-31T01:16:06;101494.25;;;3.32;100.00
24486;BME280;13449;49.374;8.584;2023-01-31T01:18:33;101496.06;;;3.31;100.00
24486;BME280;13449;49.374;8.584;2023-01-31T01:21:21;101494.47;;;3.29;100.00
24486;BME280;13449;49.374;8.584;2023-01-31T01:23:49;101498.03;;;3.29;100.00
24486;BME280;13449;49.374;8.584;2023-01-31T01:26:26;101490.78;;;3.30;100.00
24486;BME280;13449;49.374;8.584;2023-01-31T01:28:54;101507.19;;;3.27;100.00
24486;BME280;13449;49.374;8.584;2023-01-31T01:31:22;101504.63;;;3.25;100.00
24486;BME280;13449;49.374;8.584;2023-01-31T01:33:58;101501.94;;;3.25;100.00
24486;BME280;13449;49.374;8.584;2023-01-31T01:36:24;101497.84;;;3.20;100.00
24486;BME280;13449;49.374;8.584;2023-01-31T01:38:52;101499.81;;;3.18;100.00
24486;BME280;13449;49.374;8.584;2023-01-31T01:41:20;101498.31;;;3.14;100.00
24486;BME280;13449;49.374;8.584;2023-01-31T01:43:55;101505.75;;;3.10;100.00
24486;BME280;13449;49.374;8.584;2023-01-31T01:46:32;101506.00;;;3.07;100.00
24486;BME280;13449;49.374;8.584;2023-01-31T01:49:13;101504.59;;;3.02;100.00
24486;BME280;13449;49.374;8.584;2023-01-31T01:51:46;101501.91;;;3.02;100.00
24486;BME280;13449;49.374;8.584;2023-01-31T01:54:16;101504.38;;;3.05;100.00
24486;BME280;13449;49.374;8.584;2023-01-31T01:56:46;101518.84;;;3.04;100.00
24486;BME280;13449;49.374;8.584;2023-01-31T01:59:19;101514.41;;;3.03;100.00
24486;BME280;13449;49.374;8.584;2023-01-31T02:01:47;101524.31;;;3.02;100.00
24486;BME280;13449;49.374;8.584;2023-01-31T02:04:18;101527.53;;;3.07;100.00
24486;BME280;13449;49.374;8.584;2023-01-31T02:06:46;101532.06;;;3.07;100.00
24486;BME280;13449;49.374;8.584;2023-01-31T02:09:20;101522.34;;;3.04;100.00
24486;BME280;13449;49.374;8.584;2023-01-31T02:11:50;101519.56;;;3.06;100.00
24486;BME280;13449;49.374;8.584;2023-01-31T02:14:17;101515.38;;;3.02;100.00
24486;BME280;13449;49.374;8.584;2023-01-31T02:16:44;101527.00;;;3.02;100.00
24486;BME280;13449;49.374;8.584;2023-01-31T02:19:45;101525.06;;;3.04;100.00
24486;BME280;13449;49.374;8.584;2023-01-31T02:31:01;101535.09;;;3.02;100.00
24486;BME280;13449;49.374;8.584;2023-01-31T02:33:49;101524.31;;;3.02;100.00
24486;BME280;13449;49.374;8.584;2023-01-31T02:41:35;101518.72;;;2.92;100.00
24486;BME280;13449;49.374;8.584;2023-01-31T02:47:20;101520.38;;;2.82;100.00
24486;BME280;13449;49.374;8.584;2023-01-31T02:49:56;101525.13;;;2.79;100.00
24486;BME280;13449;49.374;8.584;2023-01-31T02:52:44;101534.06;;;2.79;100.00
24486;BME280;13449;49.374;8.584;2023-01-31T02:55:18;101523.28;;;2.79;100.00
24486;BME280;13449;49.374;8.584;2023-01-31T02:58:09;101523.38;;;2.78;100.00
24486;BME280;13449;49.374;8.584;2023-01-31T03:00:41;101517.91;;;2.67;100.00
24486;BME280;13449;49.374;8.584;2023-01-31T03:03:21;101521.38;;;2.69;100.00
24486;BME280;13449;49.374;8.584;2023-01-31T03:08:41;101526.56;;;2.47;100.00
24486;BME280;13449;49.374;8.584;2023-01-31T03:11:10;101520.00;;;2.38;100.00
24486;BME280;13449;49.374;8.584;2023-01-31T03:14:02;101523.13;;;2.32;100.00
24486;BME280;13449;49.374;8.584;2023-01-31T03:16:39;101523.56;;;2.26;100.00
24486;BME280;13449;49.374;8.584;2023-01-31T03:19:49;101527.63;;;2.19;100.00
24486;BME280;13449;49.374;8.584;2023-01-31T03:22:26;101527.09;;;2.14;100.00
24486;BME280;13449;49.374;8.584;2023-01-31T03:24:55;101522.06;;;2.09;100.00
24486;BME280;13449;49.374;8.584;2023-01-31T03:27:23;101522.59;;;2.02;100.00
24486;BME280;13449;49.374;8.584;2023-01-31T03:29:55;101533.09;;;1.92;100.00
24486;BME280;13449;49.374;8.584;2023-01-31T03:32:30;101535.78;;;1.79;100.00
24486;BME280;13449;49.374;8.584;2023-01-31T03:34:58;101541.16;;;1.79;100.00
24486;BME280;13449;49.374;8.584;2023-01-31T03:40:45;101543.56;;;1.57;100.00
24486;BME280;13449;49.374;8.584;2023-01-31T03:43:30;101552.00;;;1.51;100.00
24486;BME280;13449;49.374;8.584;2023-01-31T03:46:08;101552.31;;;1.46;100.00
24486;BME280;13449;49.374;8.584;2023-01-31T03:48:39;101557.66;;;1.34;100.00
24486;BME280;13449;49.374;8.584;2023-01-31T03:51:10;101555.06;;;1.32;100.00
24486;BME280;13449;49.374;8.584;2023-01-31T03:53:44;101556.50;;;1.24;100.00
24486;BME280;13449;49.374;8.584;2023-01-31T03:56:41;101567.38;;;1.22;100.00
24486;BME280;13449;49.374;8.584;2023-01-31T03:59:17;101559.81;;;1.15;100.00
24486;BME280;13449;49.374;8.584;2023-01-31T04:01:47;101565.75;;;1.06;100.00
24486;BME280;13449;49.374;8.584;2023-01-31T04:04:29;101565.72;;;0.93;100.00
24486;BME280;13449;49.374;8.584;2023-01-31T04:07:00;101570.22;;;0.92;100.00
24486;BME280;13449;49.374;8.584;2023-01-31T04:09:30;101571.56;;;0.85;100.00
24486;BME280;13449;49.374;8.584;2023-01-31T04:12:00;101562.47;;;0.74;100.00
24486;BME280;13449;49.374;8.584;2023-01-31T04:14:35;101566.19;;;0.71;100.00
24486;BME280;13449;49.374;8.584;2023-01-31T04:17:02;101565.03;;;0.61;100.00
24486;BME280;13449;49.374;8.584;2023-01-31T04:19:28;101561.59;;;0.59;100.00
24486;BME280;13449;49.374;8.584;2023-01-31T04:21:55;101567.84;;;0.60;100.00
24486;BME280;13449;49.374;8.584;2023-01-31T04:24:21;101564.50;;;0.56;100.00
24486;BME280;13449;49.374;8.584;2023-01-31T04:26:48;101560.94;;;0.56;100.00
24486;BME280;13449;49.374;8.584;2023-01-31T04:29:15;101571.19;;;0.63;100.00
24486;BME280;13449;49.374;8.584;2023-01-31T04:31:51;101571.16;;;0.49;100.00
24486;BME280;13449;49.374;8.584;2023-01-31T04:34:23;101569.81;;;0.42;100.00
24486;BME280;13449;49.374;8.584;2023-01-31T04:36:53;101566.38;;;0.40;100.00
24486;BME280;13449;49.374;8.584;2023-01-31T04:39:22;101564.84;;;0.36;100.00
24486;BME280;13449;49.374;8.584;2023-01-31T04:41:51;101563.97;;;0.35;100.00
24486;BME280;13449;49.374;8.584;2023-01-31T04:44:21;101574.78;;;0.20;100.00
24486;BME280;13449;49.374;8.584;2023-01-31T04:46:52;101570.66;;;0.14;100.00
24486;BME280;13449;49.374;8.584;2023-01-31T04:49:29;101572.06;;;0.06;100.00
24486;BME280;13449;49.374;8.584;2023-01-31T04:51:55;101569.31;;;0.07;100.00
24486;BME280;13449;49.374;8.584;2023-01-31T04:54:25;101561.16;;;0.09;100.00
24486;BME280;13449;49.374;8.584;2023-01-31T04:56:51;101568.78;;;0.00;100.00
24486;BME280;13449;49.374;8.584;2023-01-31T04:59:20;101560.53;;;-0.11;100.00
24486;BME280;13449;49.374;8.584;2023-01-31T05:01:49;101567.44;;;-0.07;100.00
24486;BME280;13449;49.374;8.584;2023-01-31T05:04:18;101557.19;;;-0.14;100.00
24486;BME280;13449;49.374;8.584;2023-01-31T05:06:45;101562.66;;;-0.16;100.00
24486;BME280;13449;49.374;8.584;2023-01-31T05:09:11;101555.38;;;-0.14;100.00
24486;BME280;13449;49.374;8.584;2023-01-31T05:11:38;101559.38;;;-0.21;100.00
24486;BME280;13449;49.374;8.584;2023-01-31T05:14:05;101555.03;;;-0.08;100.00
24486;BME280;13449;49.374;8.584;2023-01-31T05:16:32;101559.28;;;-0.19;100.00
24486;BME280;13449;49.374;8.584;2023-01-31T05:18:58;101554.72;;;-0.33;100.00
24486;BME280;13449;49.374;8.584;2023-01-31T05:21:26;101566.56;;;-0.37;100.00
24486;BME280;13449;49.374;8.584;2023-01-31T05:23:55;101564.88;;;-0.38;100.00
24486;BME280;13449;49.374;8.584;2023-01-31T05:26:24;101558.72;;;-0.40;100.00
24486;BME280;13449;49.374;8.584;2023-01-31T05:28:54;101550.94;;;-0.44;100.00
24486;BME280;13449;49.374;8.584;2023-01-31T05:31:23;101559.44;;;-0.52;100.00
24486;BME280;13449;49.374;8.584;2023-01-31T05:33:49;101562.97;;;-0.52;100.00
24486;BME280;13449;49.374;8.584;2023-01-31T05:36:16;101561.72;;;-0.60;100.00
24486;BME280;13449;49.374;8.584;2023-01-31T05:38:45;101552.53;;;-0.56;100.00
24486;BME280;13449;49.374;8.584;2023-01-31T05:41:15;101550.28;;;-0.64;100.00
24486;BME280;13449;49.374;8.584;2023-01-31T05:43:44;101545.03;;;-0.65;100.00
24486;BME280;13449;49.374;8.584;2023-01-31T05:46:12;101553.81;;;-0.63;100.00
24486;BME280;13449;49.374;8.584;2023-01-31T05:48:39;101559.91;;;-0.75;100.00
24486;BME280;13449;49.374;8.584;2023-01-31T05:51:08;101566.28;;;-0.78;100.00
24486;BME280;13449;49.374;8.584;2023-01-31T05:53:35;101573.63;;;-0.81;100.00
24486;BME280;13449;49.374;8.584;2023-01-31T05:56:02;101563.78;;;-0.81;100.00
24486;BME280;13449;49.374;8.584;2023-01-31T05:58:29;101569.22;;;-0.82;100.00
24486;BME280;13449;49.374;8.584;2023-01-31T06:01:00;101562.41;;;-0.88;100.00
24486;BME280;13449;49.374;8.584;2023-01-31T06:03:29;101558.00;;;-0.73;100.00
24486;BME280;13449;49.374;8.584;2023-01-31T06:05:56;101560.00;;;-0.77;100.00
24486;BME280;13449;49.374;8.584;2023-01-31T06:08:25;101557.56;;;-0.81;100.00
24486;BME280;13449;49.374;8.584;2023-01-31T06:10:56;101554.19;;;-0.85;100.00
24486;BME280;13449;49.374;8.584;2023-01-31T06:13:23;101561.28;;;-0.84;100.00
24486;BME280;13449;49.374;8.584;2023-01-31T06:15:52;101570.25;;;-0.85;100.00
24486;BME280;13449;49.374;8.584;2023-01-31T06:18:18;101575.38;;;-0.80;100.00
24486;BME280;13449;49.374;8.584;2023-01-31T06:20:45;101563.34;;;-0.73;100.00
24486;BME280;13449;49.374;8.584;2023-01-31T06:23:11;101574.13;;;-0.59;100.00
24486;BME280;13449;49.374;8.584;2023-01-31T06:25:38;101574.13;;;-0.59;100.00
24486;BME280;13449;49.374;8.584;2023-01-31T06:28:07;101575.94;;;-0.44;100.00
24486;BME280;13449;49.374;8.584;2023-01-31T06:30:36;101585.84;;;-0.30;100.00
24486;BME280;13449;49.374;8.584;2023-01-31T06:33:06;101577.53;;;-0.26;100.00
24486;BME280;13449;49.374;8.584;2023-01-31T06:35:35;101579.06;;;-0.22;100.00
24486;BME280;13449;49.374;8.584;2023-01-31T06:38:02;101576.72;;;-0.12;100.00
24486;BME280;13449;49.374;8.584;2023-01-31T06:40:29;101582.59;;;-0.06;100.00
24486;BME280;13449;49.374;8.584;2023-01-31T06:42:56;101579.19;;;0.07;100.00
24486;BME280;13449;49.374;8.584;2023-01-31T06:45:23;101577.84;;;0.14;100.00
24486;BME280;13449;49.374;8.584;2023-01-31T06:47:49;101581.97;;;0.19;100.00
24486;BME280;13449;49.374;8.584;2023-01-31T06:50:16;101581.81;;;0.22;100.00
24486;BME280;13449;49.374;8.584;2023-01-31T06:52:45;101575.50;;;0.37;100.00
24486;BME280;13449;49.374;8.584;2023-01-31T06:55:13;101580.00;;;0.51;100.00
24486;BME280;13449;49.374;8.584;2023-01-31T06:57:47;101579.88;;;0.53;100.00
24486;BME280;13449;49.374;8.584;2023-01-31T07:00:15;101578.56;;;0.88;100.00
24486;BME280;13449;49.374;8.584;2023-01-31T07:02:46;101583.84;;;0.89;100.00
24486;BME280;13449;49.374;8.584;2023-01-31T07:05:13;101575.16;;;1.13;100.00
24486;BME280;13449;49.374;8.584;2023-01-31T07:07:42;101588.75;;;1.24;100.00
24486;BME280;13449;49.374;8.584;2023-01-31T07:10:09;101595.56;;;1.29;100.00
24486;BME280;13449;49.374;8.584;2023-01-31T07:12:36;101590.28;;;1.28;100.00
24486;BME280;13449;49.374;8.584;2023-01-31T07:15:05;101592.59;;;1.34;100.00
24486;BME280;13449;49.374;8.584;2023-01-31T07:17:34;101585.06;;;1.39;100.00
24486;BME280;13449;49.374;8.584;2023-01-31T07:20:03;101586.94;;;1.51;100.00
24486;BME280;13449;49.374;8.584;2023-01-31T07:22:32;101597.81;;;1.50;100.00
24486;BME280;13449;49.374;8.584;2023-01-31T07:25:03;101593.28;;;1.50;100.00
24486;BME280;13449;49.374;8.584;2023-01-31T07:27:30;101604.66;;;1.41;100.00
24486;BME280;13449;49.374;8.584;2023-01-31T07:29:57;101611.19;;;1.37;100.00
24486;BME280;13449;49.374;8.584;2023-01-31T07:32:29;101610.22;;;1.38;100.00
24486;BME280;13449;49.374;8.584;2023-01-31T07:34:56;101617.25;;;1.26;100.00
24486;BME280;13449;49.374;8.584;2023-01-31T07:37:23;101611.00;;;1.26;100.00
24486;BME280;13449;49.374;8.584;2023-01-31T07:39:49;101619.16;;;1.24;100.00
24486;BME280;13449;49.374;8.584;2023-01-31T07:42:16;101619.28;;;1.23;100.00
24486;BME280;13449;49.374;8.584;2023-01-31T07:44:43;101626.66;;;1.19;100.00
24486;BME280;13449;49.374;8.584;2023-01-31T07:47:09;101625.88;;;1.17;100.00
24486;BME280;13449;49.374;8.584;2023-01-31T07:49:38;101631.38;;;1.16;100.00
24486;BME280;13449;49.374;8.584;2023-01-31T07:52:05;101628.69;;;1.16;100.00
24486;BME280;13449;49.374;8.584;2023-01-31T07:54:33;101632.41;;;1.13;100.00
24486;BME280;13449;49.374;8.584;2023-01-31T07:57:00;101633.66;;;1.22;100.00
24486;BME280;13449;49.374;8.584;2023-01-31T07:59:28;101630.47;;;1.29;100.00
24486;BME280;13449;49.374;8.584;2023-01-31T08:01:55;101640.28;;;1.30;100.00
24486;BME280;13449;49.374;8.584;2023-01-31T08:04:40;101627.78;;;1.29;100.00
24486;BME280;13449;49.374;8.584;2023-01-31T08:07:06;101622.34;;;1.31;100.00
24486;BME280;13449;49.374;8.584;2023-01-31T08:09:35;101631.34;;;1.30;100.00
24486;BME280;13449;49.374;8.584;2023-01-31T08:12:02;101623.50;;;1.27;100.00
24486;BME280;13449;49.374;8.584;2023-01-31T08:14:28;101625.41;;;1.25;100.00
24486;BME280;13449;49.374;8.584;2023-01-31T08:16:55;101629.72;;;1.27;100.00
24486;BME280;13449;49.374;8.584;2023-01-31T08:19:21;101624.25;;;1.29;100.00
24486;BME280;13449;49.374;8.584;2023-01-31T08:21:48;101626.34;;;1.24;100.00
24486;BME280;13449;49.374;8.584;2023-01-31T08:24:15;101629.72;;;1.27;100.00
24486;BME280;13449;49.374;8.584;2023-01-31T08:26:41;101634.22;;;1.41;100.00
24486;BME280;13449;49.374;8.584;2023-01-31T08:29:08;101638.13;;;1.50;100.00
24486;BME280;13449;49.374;8.584;2023-01-31T08:31:39;101631.84;;;1.63;100.00
24486;BME280;13449;49.374;8.584;2023-01-31T08:34:06;101642.34;;;1.80;100.00
24486;BME280;13449;49.374;8.584;2023-01-31T08:36:33;101638.31;;;1.87;100.00
24486;BME280;13449;49.374;8.584;2023-01-31T08:39:01;101638.25;;;2.14;100.00
24486;BME280;13449;49.374;8.584;2023-01-31T08:41:31;101632.94;;;2.39;100.00
24486;BME280;13449;49.374;8.584;2023-01-31T08:43:57;101632.31;;;2.61;100.00
24486;BME280;13449;49.374;8.584;2023-01-31T08:46:28;101624.03;;;2.77;100.00
24486;BME280;13449;49.374;8.584;2023-01-31T08:48:56;101626.59;;;2.91;100.00
24486;BME280;13449;49.374;8.584;2023-01-31T08:51:23;101623.91;;;3.04;100.00
24486;BME280;13449;49.374;8.584;2023-01-31T08:53:50;101611.81;;;3.09;100.00
24486;BME280;13449;49.374;8.584;2023-01-31T08:56:19;101609.28;;;3.19;100.00
24486;BME280;13449;49.374;8.584;2023-01-31T08:58:49;101610.06;;;3.21;100.00
24486;BME280;13449;49.374;8.584;2023-01-31T09:01:18;101625.53;;;3.30;100.00
24486;BME280;13449;49.374;8.584;2023-01-31T09:03:46;101624.25;;;3.35;100.00
24486;BME280;13449;49.374;8.584;2023-01-31T09:06:18;101618.72;;;3.50;100.00
24486;BME280;13449;49.374;8.584;2023-01-31T09:08:45;101628.19;;;3.55;100.00
24486;BME280;13449;49.374;8.584;2023-01-31T09:11:12;101627.66;;;3.50;100.00
24486;BME280;13449;49.374;8.584;2023-01-31T09:13:45;101622.50;;;3.47;99.77
24486;BME280;13449;49.374;8.584;2023-01-31T09:16:13;101626.47;;;3.54;100.00
24486;BME280;13449;49.374;8.584;2023-01-31T09:18:40;101633.75;;;3.65;100.00
24486;BME280;13449;49.374;8.584;2023-01-31T09:21:16;101630.25;;;3.75;100.00
24486;BME280;13449;49.374;8.584;2023-01-31T09:23:46;101616.81;;;3.86;99.55
24486;BME280;13449;49.374;8.584;2023-01-31T09:26:14;101616.19;;;3.83;98.24
24486;BME280;13449;49.374;8.584;2023-01-31T09:28:41;101631.03;;;3.77;98.79
24486;BME280;13449;49.374;8.584;2023-01-31T09:31:13;101626.81;;;3.73;98.95
24486;BME280;13449;49.374;8.584;2023-01-31T09:33:40;101628.97;;;4.05;99.02
24486;BME280;13449;49.374;8.584;2023-01-31T09:36:09;101626.56;;;4.24;96.60
24486;BME280;13449;49.374;8.584;2023-01-31T09:38:38;101622.44;;;4.31;96.58
24486;BME280;13449;49.374;8.584;2023-01-31T09:41:15;101626.09;;;4.30;95.13
24486;BME280;13449;49.374;8.584;2023-01-31T09:43:51;101623.88;;;4.35;95.28
24486;BME280;13449;49.374;8.584;2023-01-31T09:46:25;101613.84;;;4.37;93.82
24486;BME280;13449;49.374;8.584;2023-01-31T09:48:54;101610.91;;;4.40;94.02
24486;BME280;13449;49.374;8.584;2023-01-31T09:51:23;101610.81;;;4.42;93.91
24486;BME280;13449;49.374;8.584;2023-01-31T09:53:49;101607.09;;;4.43;93.59
24486;BME280;13449;49.374;8.584;2023-01-31T10:02:05;101610.06;;;4.51;92.40
24486;BME280;13449;49.374;8.584;2023-01-31T10:10:02;101614.38;;;4.53;90.70
24486;BME280;13449;49.374;8.584;2023-01-31T10:12:35;101608.50;;;4.59;90.29
24486;BME280;13449;49.374;8.584;2023-01-31T10:17:56;101609.75;;;4.88;91.22
24486;BME280;13449;49.374;8.584;2023-01-31T10:20:34;101622.53;;;4.86;87.60
24486;BME280;13449;49.374;8.584;2023-01-31T10:28:20;101613.44;;;4.87;88.21
24486;BME280;13449;49.374;8.584;2023-01-31T10:30:56;101611.59;;;4.88;88.32
24486;BME280;13449;49.374;8.584;2023-01-31T10:33:48;101583.22;;;5.05;88.96
24486;BME280;13449;49.374;8.584;2023-01-31T10:44:54;101593.66;;;5.31;85.58
24486;BME280;13449;49.374;8.584;2023-01-31T10:47:34;101578.25;;;5.54;85.00
24486;BME280;13449;49.374;8.584;2023-01-31T10:50:12;101570.75;;;5.58;84.41
24486;BME280;13449;49.374;8.584;2023-01-31T10:52:52;101556.19;;;5.59;84.40
24486;BME280;13449;49.374;8.584;2023-01-31T10:58:15;101559.91;;;5.58;85.28
24486;BME280;13449;49.374;8.584;2023-01-31T11:00:43;101560.56;;;5.50;85.73
24486;BME280;13449;49.374;8.584;2023-01-31T11:03:13;101564.78;;;5.32;85.28
24486;BME280;13449;49.374;8.584;2023-01-31T11:05:51;101580.25;;;5.30;85.78
24486;BME280;13449;49.374;8.584;2023-01-31T11:11:16;101566.03;;;5.17;86.28
24486;BME280;13449;49.374;8.584;2023-01-31T11:13:58;101575.38;;;5.13;86.04
24486;BME280;13449;49.374;8.584;2023-01-31T11:16:36;101572.53;;;5.14;86.28
24486;BME280;13449;49.374;8.584;2023-01-31T11:21:58;101555.94;;;5.19;87.06
24486;BME280;13449;49.374;8.584;2023-01-31T11:24:28;101541.19;;;5.12;86.16
24486;BME280;13449;49.374;8.584;2023-01-31T11:29:31;101527.69;;;5.01;86.35
24486;BME280;13449;49.374;8.584;2023-01-31T11:32:01;101514.06;;;5.02;86.63
24486;BME280;13449;49.374;8.584;2023-01-31T11:34:30;101505.19;;;5.11;87.44
24486;BME280;13449;49.374;8.584;2023-01-31T11:37:09;101516.75;;;5.13;86.34
24486;BME280;13449;49.374;8.584;2023-01-31T11:39:39;101500.41;;;5.15;86.13
24486;BME280;13449;49.374;8.584;2023-01-31T11:42:14;101487.09;;;5.23;86.19
24486;BME280;13449;49.374;8.584;2023-01-31T11:44:58;101477.00;;;5.25;85.66
24486;BME280;13449;49.374;8.584;2023-01-31T11:47:46;101482.41;;;5.25;85.73
24486;BME280;13449;49.374;8.584;2023-01-31T11:50:59;101496.94;;;5.24;84.91
24486;BME280;13449;49.374;8.584;2023-01-31T11:53:32;101493.00;;;5.28;85.22
24486;BME280;13449;49.374;8.584;2023-01-31T11:56:13;101483.88;;;5.29;85.29
24486;BME280;13449;49.374;8.584;2023-01-31T11:58:42;101472.34;;;5.27;85.23
24486;BME280;13449;49.374;8.584;2023-01-31T12:01:12;101468.91;;;5.25;85.67
24486;BME280;13449;49.374;8.584;2023-01-31T12:03:46;101452.34;;;5.18;85.71
24486;BME280;13449;49.374;8.584;2023-01-31T12:06:30;101438.81;;;5.18;85.31
24486;BME280;13449;49.374;8.584;2023-01-31T12:09:02;101435.41;;;5.16;85.84
24486;BME280;13449;49.374;8.584;2023-01-31T12:11:31;101434.28;;;5.19;85.49
24486;BME280;13449;49.374;8.584;2023-01-31T12:16:29;101454.19;;;5.18;85.19
24486;BME280;13449;49.374;8.584;2023-01-31T12:28:11;101412.22;;;5.34;84.00
24486;BME280;13449;49.374;8.584;2023-01-31T12:33:34;101410.22;;;5.36;83.31
24486;BME280;13449;49.374;8.584;2023-01-31T12:36:24;101414.28;;;5.42;83.65
24486;BME280;13449;49.374;8.584;2023-01-31T12:39:13;101417.03;;;5.31;82.90
24486;BME280;13449;49.374;8.584;2023-01-31T12:44:53;101408.38;;;5.16;83.70
24486;BME280;13449;49.374;8.584;2023-01-31T12:57:41;101426.72;;;5.02;85.16
24486;BME280;13449;49.374;8.584;2023-01-31T13:01:00;101408.41;;;5.05;85.39
24486;BME280;13449;49.374;8.584;2023-01-31T13:06:30;101406.31;;;5.09;85.30
24486;BME280;13449;49.374;8.584;2023-01-31T13:09:02;101416.03;;;5.00;84.65
24486;BME280;13449;49.374;8.584;2023-01-31T13:12:17;101405.59;;;4.96;85.74
24486;BME280;13449;49.374;8.584;2023-01-31T13:14:59;101416.44;;;4.84;86.91
24486;BME280;13449;49.374;8.584;2023-01-31T13:17:31;101414.38;;;4.66;87.89
24486;BME280;13449;49.374;8.584;2023-01-31T13:22:56;101393.53;;;4.57;89.34
24486;BME280;13449;49.374;8.584;2023-01-31T13:27:59;101362.38;;;4.42;90.59
24486;BME280;13449;49.374;8.584;2023-01-31T13:30:40;101337.47;;;4.38;90.76
24486;BME280;13449;49.374;8.584;2023-01-31T13:33:34;101340.81;;;4.30;91.57
24486;BME280;13449;49.374;8.584;2023-01-31T13:38:44;101342.66;;;4.30;92.35
24486;BME280;13449;49.374;8.584;2023-01-31T13:43:49;101320.06;;;4.31;91.61
24486;BME280;13449;49.374;8.584;2023-01-31T13:46:19;101325.22;;;4.34;91.12
24486;BME280;13449;49.374;8.584;2023-01-31T13:48:52;101332.31;;;4.35;90.81
24486;BME280;13449;49.374;8.584;2023-01-31T13:54:22;101329.13;;;4.41;90.54
24486;BME280;13449;49.374;8.584;2023-01-31T13:56:54;101354.28;;;4.42;91.41
24486;BME280;13449;49.374;8.584;2023-01-31T13:59:33;101351.84;;;4.38;90.93
24486;BME280;13449;49.374;8.584;2023-01-31T14:02:14;101344.56;;;4.39;90.16
24486;BME280;13449;49.374;8.584;2023-01-31T14:04:44;101356.25;;;4.39;90.83
24486;BME280;13449;49.374;8.584;2023-01-31T14:07:17;101349.97;;;4.39;90.27
24486;BME280;13449;49.374;8.584;2023-01-31T14:12:38;101338.47;;;4.37;90.64
24486;BME280;13449;49.374;8.584;2023-01-31T14:15:48;101353.91;;;4.35;89.87
24486;BME280;13449;49.374;8.584;2023-01-31T14:18:34;101351.22;;;4.35;89.25
24486;BME280;13449;49.374;8.584;2023-01-31T14:21:43;101353.91;;;4.35;90.29
24486;BME280;13449;49.374;8.584;2023-01-31T14:24:18;101347.91;;;4.31;90.27
24486;BME280;13449;49.374;8.584;2023-01-31T14:29:15;101329.00;;;4.31;90.46
24486;BME280;13449;49.374;8.584;2023-01-31T14:31:44;101325.22;;;4.34;90.14
24486;BME280;13449;49.374;8.584;2023-01-31T14:34:25;101336.00;;;4.34;90.01
24486;BME280;13449;49.374;8.584;2023-01-31T14:37:03;101332.31;;;4.35;89.59
24486;BME280;13449;49.374;8.584;2023-01-31T14:42:28;101322.00;;;4.40;89.61
24486;BME280;13449;49.374;8.584;2023-01-31T14:45:24;101335.25;;;4.43;90.15
24486;BME280;13449;49.374;8.584;2023-01-31T14:48:13;101338.44;;;4.48;89.92
24486;BME280;13449;49.374;8.584;2023-01-31T14:58:41;101330.56;;;4.56;90.59
24486;BME280;13449;49.374;8.584;2023-01-31T15:01:10;101330.41;;;4.58;89.82
24486;BME280;13449;49.374;8.584;2023-01-31T15:03:50;101331.03;;;4.61;90.52
24486;BME280;13449;49.374;8.584;2023-01-31T15:06:25;101327.34;;;4.62;90.41
24486;BME280;13449;49.374;8.584;2023-01-31T15:09:18;101324.53;;;4.64;91.18
24486;BME280;13449;49.374;8.584;2023-01-31T15:11:52;101326.25;;;4.65;91.78
24486;BME280;13449;49.374;8.584;2023-01-31T15:14:36;101328.81;;;4.66;91.98
24486;BME280;13449;49.374;8.584;2023-01-31T15:17:27;101325.50;;;4.63;92.70
24486;BME280;13449;49.374;8.584;2023-01-31T15:20:17;101328.22;;;4.63;94.22
24486;BME280;13449;49.374;8.584;2023-01-31T15:22:47;101320.09;;;4.63;94.25